Time;durP1;ratioP1;P1;durP2;ratioP2;P2;SDS_P1;SDS_P2;PMS_P1;PMS_P2;Temp;Humidity;BMP_temperature;BMP_pressure;BME280_temperature;BME280_humidity;BME280_pressure;Samples;Min_cycle;Max_cycle;Signal;HPM_P1;HPM_P2
2021/10/12 00:01:12;;;;;;;14.43;2.70;;;8.30;99.90;;;;;;5000686;28;20029;-67
2021/10/12 00:03:37;;;;;;;16.58;2.80;;;8.20;99.90;;;;;;5003304;28;20065;-67
2021/10/12 00:06:03;;;;;;;12.02;2.47;;;8.20;99.90;;;;;;5003264;28;20934;-67
2021/10/12 00:08:28;;;;;;;11.18;2.83;;;8.20;99.90;;;;;;5001642;28;20135;-66
2021/10/12 00:10:54;;;;;;;13.02;2.40;;;8.20;99.90;;;;;;5001059;28;20121;-67
2021/10/12 00:13:19;;;;;;;16.38;3.53;;;8.20;99.90;;;;;;5001508;28;20512;-67
2021/10/12 00:15:45;;;;;;;13.05;2.90;;;8.20;99.90;;;;;;4996852;28;20409;-67
2021/10/12 00:18:10;;;;;;;18.90;2.72;;;8.20;99.90;;;;;;4998413;28;20033;-66
2021/10/12 00:20:36;;;;;;;19.55;2.92;;;8.20;99.90;;;;;;5001538;28;20454;-67
2021/10/12 00:23:01;;;;;;;19.77;2.60;;;8.20;99.90;;;;;;5001021;28;20033;-67
2021/10/12 00:25:27;;;;;;;16.08;2.30;;;8.20;99.90;;;;;;5000593;28;20044;-67
2021/10/12 00:27:54;;;;;;;18.80;3.05;;;8.20;99.90;;;;;;5000651;28;20034;-67
2021/10/12 00:30:19;;;;;;;9.27;2.60;;;8.20;99.90;;;;;;5001405;28;20037;-66
2021/10/12 00:32:45;;;;;;;17.85;2.58;;;8.20;99.90;;;;;;4999957;28;20026;-67
2021/10/12 00:35:12;;;;;;;17.30;3.08;;;8.10;99.90;;;;;;4999673;28;20076;-67
2021/10/12 00:37:38;;;;;;;19.80;3.10;;;8.10;99.90;;;;;;5000580;28;20025;-66
2021/10/12 00:40:03;;;;;;;13.57;2.38;;;8.10;99.90;;;;;;5001088;28;20612;-67
2021/10/12 00:42:29;;;;;;;12.20;2.40;;;8.10;99.90;;;;;;5000789;28;20064;-67
2021/10/12 00:44:56;;;;;;;19.98;2.38;;;8.00;99.90;;;;;;4999386;28;20044;-67
2021/10/12 00:47:21;;;;;;;18.63;3.08;;;8.00;99.90;;;;;;5000310;28;20038;-68
2021/10/12 00:49:46;;;;;;;14.13;2.72;;;8.00;99.90;;;;;;5000035;28;20036;-68
2021/10/12 00:52:12;;;;;;;9.38;2.47;;;8.00;99.90;;;;;;5000936;28;20108;-68
2021/10/12 00:54:37;;;;;;;21.02;3.08;;;8.00;99.90;;;;;;5000886;28;20546;-68
2021/10/12 00:57:03;;;;;;;12.18;2.58;;;8.70;99.90;;;;;;5001705;28;20038;-68
2021/10/12 00:59:28;;;;;;;15.90;2.55;;;7.90;99.90;;;;;;5004957;28;20244;-68
2021/10/12 01:01:54;;;;;;;19.48;3.10;;;7.90;99.90;;;;;;5004301;28;20798;-68
2021/10/12 01:04:19;;;;;;;18.00;2.83;;;7.90;99.90;;;;;;5005066;28;20036;-68
2021/10/12 01:06:45;;;;;;;18.05;2.97;;;7.80;99.90;;;;;;5004982;28;20034;-68
2021/10/12 01:09:10;;;;;;;12.98;2.83;;;7.80;99.90;;;;;;5004591;28;20538;-68
2021/10/12 01:11:36;;;;;;;17.42;3.00;;;7.80;99.90;;;;;;5004092;28;20033;-68
2021/10/12 01:14:01;;;;;;;16.77;2.67;;;7.80;99.90;;;;;;5004255;28;20497;-68
2021/10/12 01:16:27;;;;;;;17.63;2.92;;;7.80;99.90;;;;;;5004202;28;20409;-68
2021/10/12 01:18:52;;;;;;;14.80;2.30;;;7.80;99.90;;;;;;5004209;28;20054;-68
2021/10/12 01:21:18;;;;;;;18.52;2.72;;;7.80;99.90;;;;;;5004653;28;20386;-68
2021/10/12 01:23:43;;;;;;;8.57;2.40;;;7.80;99.90;;;;;;5003796;28;20037;-68
2021/10/12 01:26:09;;;;;;;23.15;2.88;;;7.80;99.90;;;;;;5002803;28;20022;-68
2021/10/12 01:28:34;;;;;;;17.83;2.80;;;7.80;99.90;;;;;;5003751;28;20050;-68
2021/10/12 01:30:59;;;;;;;18.98;2.85;;;7.70;99.90;;;;;;5004128;28;20511;-68
2021/10/12 01:33:25;;;;;;;23.98;3.38;;;7.80;99.90;;;;;;5012026;28;20041;-68
2021/10/12 01:35:51;;;;;;;14.23;2.50;;;7.70;99.90;;;;;;5004870;28;20029;-68
2021/10/12 01:38:17;;;;;;;14.82;2.85;;;7.70;99.90;;;;;;5003036;28;20045;-68
2021/10/12 01:40:42;;;;;;;14.20;2.97;;;7.80;99.90;;;;;;5003800;28;20424;-68
2021/10/12 01:43:08;;;;;;;12.77;2.67;;;7.70;99.90;;;;;;5003663;28;20537;-68
2021/10/12 01:45:37;;;;;;;11.40;3.10;;;7.70;99.90;;;;;;5002541;28;20034;-68
2021/10/12 01:48:03;;;;;;;13.02;2.35;;;7.70;99.90;;;;;;5003028;28;20038;-68
2021/10/12 01:50:28;;;;;;;16.60;3.30;;;7.70;99.90;;;;;;5001583;28;20876;-68
2021/10/12 01:52:54;;;;;;;18.15;2.70;;;7.70;99.90;;;;;;5000603;28;20038;-68
2021/10/12 01:55:19;;;;;;;15.55;2.70;;;7.70;99.90;;;;;;5001736;28;20671;-68
2021/10/12 01:57:45;;;;;;;14.27;2.85;;;7.70;99.90;;;;;;5003003;28;20150;-68
2021/10/12 02:00:10;;;;;;;20.65;3.88;;;7.60;99.90;;;;;;5002549;28;20409;-68
2021/10/12 02:02:39;;;;;;;7.47;3.13;;;7.60;99.90;;;;;;5003241;28;20029;-68
2021/10/12 02:05:04;;;;;;;18.95;3.38;;;7.60;99.90;;;;;;5003241;28;20038;-68
2021/10/12 02:07:30;;;;;;;14.18;2.70;;;7.60;99.90;;;;;;5002056;28;20084;-68
2021/10/12 02:09:55;;;;;;;19.05;3.45;;;7.50;99.90;;;;;;5000620;28;20040;-68
2021/10/12 02:12:21;;;;;;;11.75;3.20;;;7.50;99.90;;;;;;4997601;28;20042;-68
2021/10/12 02:14:46;;;;;;;16.10;2.88;;;7.50;99.90;;;;;;5002714;28;20103;-68
2021/10/12 02:17:12;;;;;;;11.07;2.55;;;7.50;99.90;;;;;;5002078;28;20056;-68
2021/10/12 02:19:37;;;;;;;20.90;3.08;;;6.90;99.90;;;;;;5001802;28;20045;-68
2021/10/12 02:22:02;;;;;;;15.18;2.58;;;7.40;99.90;;;;;;5001528;28;20033;-68
2021/10/12 02:24:28;;;;;;;35.10;4.47;;;7.60;99.90;;;;;;5000861;28;20516;-68
2021/10/12 02:26:54;;;;;;;14.75;3.30;;;;;;;;;;5002027;28;20085;-68
2021/10/12 02:29:20;;;;;;;13.48;3.10;;;;;;;;;;5008210;28;20165;-68
2021/10/12 02:31:46;;;;;;;12.25;3.05;;;;;;;;;;5002094;28;20034;-68
2021/10/12 02:34:11;;;;;;;16.08;2.97;;;7.80;99.90;;;;;;5000813;28;20038;-69
2021/10/12 02:36:37;;;;;;;19.00;2.67;;;;;;;;;;5002060;28;20034;-68
2021/10/12 02:39:04;;;;;;;14.48;2.60;;;;;;;;;;4999713;28;20026;-68
2021/10/12 02:41:30;;;;;;;20.70;2.75;;;;;;;;;;5001844;28;20038;-68
2021/10/12 02:43:56;;;;;;;13.63;4.22;;;;;;;;;;5000603;28;20024;-68
2021/10/12 02:46:22;;;;;;;14.85;2.92;;;;;;;;;;5001022;28;20645;-68
2021/10/12 02:48:48;;;;;;;13.45;3.03;;;7.20;99.90;;;;;;5001361;28;20406;-68
2021/10/12 02:51:14;;;;;;;16.55;3.35;;;;;;;;;;4999846;28;20405;-68
2021/10/12 02:53:40;;;;;;;20.83;3.22;;;;;;;;;;5009125;28;20033;-67
2021/10/12 02:56:06;;;;;;;19.85;4.15;;;;;;;;;;5001948;28;20546;-68
2021/10/12 02:58:32;;;;;;;18.42;3.80;;;;;;;;;;5001093;28;20453;-68
2021/10/12 03:00:58;;;;;;;12.85;3.40;;;;;;;;;;5001819;28;20040;-68
2021/10/12 03:03:24;;;;;;;16.45;3.85;;;;;;;;;;5000920;28;20088;-68
2021/10/12 03:05:50;;;;;;;16.52;3.90;;;;;;;;;;5001832;28;20026;-68
2021/10/12 03:08:16;;;;;;;20.70;4.03;;;;;;;;;;5001656;28;20041;-68
2021/10/12 03:10:42;;;;;;;18.80;4.13;;;;;;;;;;5002300;28;20126;-68
2021/10/12 03:13:08;;;;;;;30.33;5.55;;;;;;;;;;5000804;28;20882;-68
2021/10/12 03:15:34;;;;;;;22.42;4.50;;;;;;;;;;5004617;28;20065;-68
2021/10/12 03:18:00;;;;;;;17.23;4.25;;;;;;;;;;5004363;28;20525;-67
2021/10/12 03:20:26;;;;;;;19.80;4.80;;;;;;;;;;5004241;28;20041;-68
2021/10/12 03:22:52;;;;;;;16.10;4.45;;;;;;;;;;5003316;28;20176;-68
2021/10/12 03:25:18;;;;;;;14.38;4.18;;;;;;;;;;5004686;28;20660;-68
2021/10/12 03:27:44;;;;;;;20.83;5.38;;;;;;;;;;5003258;28;20029;-68
2021/10/12 03:30:10;;;;;;;15.63;4.00;;;;;;;;;;5003211;28;20041;-68
2021/10/12 03:32:35;;;;;;;21.42;4.78;;;;;;;;;;5004622;28;20161;-68
2021/10/12 03:35:02;;;;;;;23.85;4.32;;;;;;;;;;5001765;28;20079;-68
2021/10/12 03:37:27;;;;;;;20.98;4.15;;;7.90;99.90;;;;;;5002000;28;20067;-68
2021/10/12 03:39:53;;;;;;;20.92;3.92;;;;;;;;;;5001154;28;20509;-68
2021/10/12 03:42:19;;;;;;;16.17;4.15;;;;;;;;;;4999462;28;20033;-68
2021/10/12 03:44:45;;;;;;;14.45;3.97;;;;;;;;;;4999921;28;20120;-68
2021/10/12 03:47:11;;;;;;;20.58;4.55;;;;;;;;;;5000329;28;20053;-67
2021/10/12 03:49:37;;;;;;;18.45;4.30;;;;;;;;;;5000578;28;20104;-68
2021/10/12 03:52:03;;;;;;;18.52;4.47;;;;;;;;;;5000075;28;20425;-67
2021/10/12 03:54:29;;;;;;;19.98;3.60;;;;;;;;;;5000044;28;20030;-68
2021/10/12 03:56:55;;;;;;;17.45;4.63;;;;;;;;;;5000463;28;20530;-68
2021/10/12 03:59:21;;;;;;;25.83;4.28;;;;;;;;;;5001807;28;20678;-68
2021/10/12 04:01:47;;;;;;;24.13;4.40;;;;;;;;;;5003193;28;20040;-68
2021/10/12 04:04:13;;;;;;;15.57;3.90;;;;;;;;;;5000601;28;20033;-68
2021/10/12 04:06:39;;;;;;;17.40;4.28;;;;;;;;;;5002676;28;20085;-68
2021/10/12 04:09:05;;;;;;;22.10;4.70;;;;;;;;;;5002317;28;20072;-68
2021/10/12 04:11:31;;;;;;;15.60;4.47;;;;;;;;;;4998060;28;20174;-68
2021/10/12 04:13:57;;;;;;;14.13;4.25;;;;;;;;;;4997310;28;20122;-68
2021/10/12 04:16:23;;;;;;;17.10;4.95;;;;;;;;;;5001573;28;20542;-68
2021/10/12 04:18:49;;;;;;;18.45;4.28;;;;;;;;;;5002045;28;20578;-68
2021/10/12 04:21:14;;;;;;;25.77;4.65;;;9.00;99.90;;;;;;5000045;28;20068;-68
2021/10/12 04:23:40;;;;;;;23.15;4.32;;;;;;;;;;5001451;28;20054;-68
2021/10/12 04:26:10;;;;;;;19.42;4.20;;;;;;;;;;4997929;28;20037;-68
2021/10/12 04:28:36;;;;;;;18.20;4.70;;;;;;;;;;4987837;28;20042;-68
2021/10/12 04:31:02;;;;;;;16.88;4.68;;;;;;;;;;4997024;28;20473;-68
2021/10/12 04:33:28;;;;;;;13.73;4.35;;;;;;;;;;5002445;28;20054;-68
2021/10/12 04:35:54;;;;;;;15.77;4.85;;;;;;;;;;5003080;28;20042;-68
2021/10/12 04:38:20;;;;;;;28.90;5.57;;;;;;;;;;5003273;28;20034;-68
2021/10/12 04:40:46;;;;;;;25.50;4.95;;;;;;;;;;5001168;28;20426;-68
2021/10/12 04:43:12;;;;;;;17.77;5.07;;;;;;;;;;5010903;28;20034;-68
2021/10/12 04:45:39;;;;;;;24.77;5.00;;;;;;;;;;4998410;28;20070;-68
2021/10/12 04:48:05;;;;;;;23.15;5.75;;;;;;;;;;4997560;28;20046;-69
2021/10/12 04:50:31;;;;;;;16.67;5.03;;;;;;;;;;5002023;28;20046;-68
2021/10/12 04:52:59;;;;;;;20.20;5.75;;;;;;;;;;4999145;28;20026;-68
2021/10/12 04:55:25;;;;;;;17.00;5.55;;;;;;;;;;5001130;28;20049;-69
2021/10/12 04:57:51;;;;;;;18.15;4.63;;;;;;;;;;5003312;28;20125;-69
2021/10/12 05:00:16;;;;;;;12.57;4.72;;;8.90;99.90;;;;;;5003884;28;20030;-69
2021/10/12 05:02:42;;;;;;;18.35;5.68;;;;;;;;;;5004388;28;20037;-68
2021/10/12 05:05:08;;;;;;;21.13;7.20;;;;;;;;;;4997369;28;20030;-68
2021/10/12 05:07:34;;;;;;;16.60;5.07;;;;;;;;;;5008362;28;20037;-69
2021/10/12 05:10:00;;;;;;;26.13;5.57;;;;;;;;;;5000405;28;20049;-69
2021/10/12 05:12:26;;;;;;;17.80;6.30;;;;;;;;;;5002548;28;20026;-69
2021/10/12 05:14:52;;;;;;;26.92;6.45;;;;;;;;;;5002183;28;20037;-69
2021/10/12 05:17:27;;;;;;;14.63;5.38;;;;;;;;;;4998345;28;20045;-68
2021/10/12 05:19:53;;;;;;;19.00;6.05;;;;;;;;;;5003380;28;20041;-69
2021/10/12 05:22:20;;;;;;;21.88;5.97;;;;;;;;;;5000167;28;20025;-69
2021/10/12 05:24:45;;;;;;;16.85;6.60;;;8.50;99.90;;;;;;4994959;28;20045;-69
2021/10/12 05:27:11;;;;;;;19.45;6.45;;;;;;;;;;4996243;28;20054;-69
2021/10/12 05:29:37;;;;;;;20.30;6.25;;;;;;;;;;5002578;28;20030;-69
2021/10/12 05:32:03;;;;;;;18.60;5.93;;;;;;;;;;4999851;28;20130;-69
2021/10/12 05:34:29;;;;;;;22.10;5.75;;;;;;;;;;5001183;28;20037;-70
2021/10/12 05:36:55;;;;;;;18.92;6.07;;;8.30;99.90;;;;;;5002473;28;20042;-70
2021/10/12 05:39:20;;;;;;;22.73;5.55;;;;;;;;;;5001051;28;20056;-69
2021/10/12 05:41:46;;;;;;;21.52;6.03;;;8.60;99.90;;;;;;5003090;28;20716;-69
2021/10/12 05:44:11;;;;;;;26.00;11.95;;;8.80;99.90;;;;;;5000739;28;20042;-68
2021/10/12 05:46:37;;;;;;;28.98;6.70;;;8.70;99.90;;;;;;5002135;28;20133;-68
2021/10/12 05:49:02;;;;;;;18.60;5.05;;;8.70;99.90;;;;;;4999169;28;20061;-69
2021/10/12 05:51:28;;;;;;;14.63;5.53;;;8.60;99.90;;;;;;5001146;28;20030;-68
2021/10/12 05:53:55;;;;;;;14.60;5.82;;;8.60;99.90;;;;;;5002872;28;20470;-68
2021/10/12 05:56:27;;;;;;;22.80;6.15;;;8.70;99.90;;;;;;5002820;28;20030;-68
2021/10/12 05:58:53;;;;;;;12.90;6.10;;;8.70;99.90;;;;;;4995641;28;20318;-70
2021/10/12 06:01:19;;;;;;;17.55;6.75;;;8.60;99.90;;;;;;5001910;28;20030;-69
2021/10/12 06:03:44;;;;;;;19.30;6.25;;;8.70;99.90;;;;;;5002430;28;20077;-69
2021/10/12 06:06:11;;;;;;;17.60;7.35;;;8.70;99.90;;;;;;5000660;28;20501;-68
2021/10/12 06:08:37;;;;;;;20.65;7.13;;;8.80;99.90;;;;;;4996707;28;20678;-69
2021/10/12 06:11:02;;;;;;;26.30;7.35;;;8.80;99.90;;;;;;4995675;28;20066;-68
2021/10/12 06:13:27;;;;;;;16.15;6.93;;;9.00;99.90;;;;;;5000509;28;20040;-68
2021/10/12 06:15:53;;;;;;;18.08;7.68;;;9.10;99.90;;;;;;4997389;28;20124;-68
2021/10/12 06:18:19;;;;;;;18.95;6.35;;;;;;;;;;4998095;28;20049;-68
2021/10/12 06:20:45;;;;;;;18.80;6.28;;;;;;;;;;5000241;28;20072;-68
2021/10/12 06:23:11;;;;;;;18.38;5.93;;;;;;;;;;4995631;28;20065;-68
2021/10/12 06:25:37;;;;;;;16.88;5.82;;;;;;;;;;4997783;28;20030;-67
2021/10/12 06:28:03;;;;;;;19.25;5.60;;;9.00;99.90;;;;;;5001895;28;20034;-68
2021/10/12 06:30:28;;;;;;;14.50;5.32;;;8.30;99.90;;;;;;4996118;28;20053;-68
2021/10/12 06:32:54;;;;;;;10.35;4.47;;;;;;;;;;4998261;28;20062;-68
2021/10/12 06:35:20;;;;;;;15.95;5.88;;;;;;;;;;5001217;28;20084;-67
2021/10/12 06:37:46;;;;;;;14.93;4.60;;;;;;;;;;4994458;28;20500;-67
2021/10/12 06:40:12;;;;;;;9.30;3.60;;;;;;;;;;5000872;28;20588;-68
2021/10/12 06:42:37;;;;;;;20.90;4.32;;;9.30;99.90;;;;;;4998978;28;20083;-68
2021/10/12 06:45:03;;;;;;;16.02;3.90;;;9.10;99.90;;;;;;5000703;28;20033;-68
2021/10/12 06:47:28;;;;;;;14.68;4.35;;;9.10;99.90;;;;;;5009024;28;20561;-67
2021/10/12 06:49:54;;;;;;;15.07;5.95;;;9.10;99.90;;;;;;5001850;28;20033;-67
2021/10/12 06:52:20;;;;;;;10.55;3.35;;;9.10;99.90;;;;;;4999706;28;20038;-68
2021/10/12 06:54:48;;;;;;;10.27;3.20;;;9.60;99.90;;;;;;4991797;28;20038;-67
2021/10/12 06:57:14;;;;;;;7.85;2.72;;;;;;;;;;5001247;28;20121;-67
2021/10/12 06:59:39;;;;;;;11.18;3.03;;;9.30;99.90;;;;;;4999298;28;20116;-67
2021/10/12 07:02:05;;;;;;;8.05;2.97;;;9.20;99.90;;;;;;5005902;28;20033;-67
2021/10/12 07:04:30;;;;;;;6.07;3.05;;;9.20;99.90;;;;;;5000856;28;20149;-68
2021/10/12 07:06:56;;;;;;;6.63;2.88;;;9.20;99.90;;;;;;4996071;28;20137;-67
2021/10/12 07:09:22;;;;;;;7.38;2.80;;;9.20;99.90;;;;;;4999756;28;20021;-68
2021/10/12 07:11:48;;;;;;;7.85;3.40;;;;;;;;;;5000518;28;20041;-68
2021/10/12 07:14:14;;;;;;;9.45;3.15;;;;;;;;;;5001067;28;20038;-68
2021/10/12 07:16:40;;;;;;;11.65;3.97;;;;;;;;;;5003665;28;20123;-68
2021/10/12 07:19:06;;;;;;;11.43;4.32;;;;;;;;;;4995666;28;20694;-68
2021/10/12 07:21:32;;;;;;;9.32;3.08;;;;;;;;;;4991296;28;20033;-68
2021/10/12 07:23:58;;;;;;;7.65;2.78;;;;;;;;;;5003323;28;20037;-67
2021/10/12 07:26:24;;;;;;;7.80;3.10;;;;;;;;;;5001510;28;20029;-67
2021/10/12 07:28:50;;;;;;;6.35;2.92;;;;;;;;;;5001572;28;20037;-68
2021/10/12 07:31:16;;;;;;;8.35;2.63;;;;;;;;;;5002759;28;20042;-69
2021/10/12 07:33:42;;;;;;;9.82;2.65;;;;;;;;;;5001011;28;20119;-68
2021/10/12 07:36:08;;;;;;;6.63;2.60;;;;;;;;;;4991347;28;20099;-68
2021/10/12 07:38:33;;;;;;;5.97;2.92;;;9.30;99.90;;;;;;4992853;28;20026;-68
2021/10/12 07:40:59;;;;;;;7.53;3.10;;;;;;;;;;4997300;28;20763;-67
2021/10/12 07:43:25;;;;;;;5.03;2.80;;;10.30;99.90;;;;;;4991493;28;20038;-67
2021/10/12 07:45:50;;;;;;;6.07;2.53;;;7.90;99.90;;;;;;4995484;28;20101;-68
2021/10/12 07:48:16;;;;;;;6.88;2.75;;;9.90;99.90;;;;;;4991701;28;20418;-67
2021/10/12 07:50:42;;;;;;;5.80;2.50;;;;;;;;;;4995312;28;20483;-67
2021/10/12 07:53:08;;;;;;;4.97;2.30;;;;;;;;;;4993383;28;20034;-67
2021/10/12 07:55:38;;;;;;;7.32;3.13;;;10.20;99.90;;;;;;5000719;28;20794;-67
2021/10/12 07:58:03;;;;;;;5.78;2.60;;;10.00;99.90;;;;;;4999688;28;20065;-67
2021/10/12 08:00:30;;;;;;;7.47;2.55;;;10.10;99.90;;;;;;5002254;28;20451;-69
2021/10/12 08:02:56;;;;;;;8.57;2.00;;;;;;;;;;5007970;28;20508;-67
2021/10/12 08:05:23;;;;;;;6.55;2.58;;;;;;;;;;5001656;28;20030;-67
2021/10/12 08:07:48;;;;;;;5.85;2.40;;;;;;;;;;5002473;28;20132;-67
2021/10/12 08:10:14;;;;;;;6.07;2.25;;;10.90;99.90;;;;;;5005541;28;20585;-68
2021/10/12 08:12:40;;;;;;;3.88;1.88;;;;;;;;;;5003941;28;20073;-67
2021/10/12 08:15:06;;;;;;;3.90;1.90;;;;;;;;;;5002964;28;20038;-68
2021/10/12 08:17:32;;;;;;;5.75;1.83;;;;;;;;;;5000678;28;20048;-67
2021/10/12 08:19:58;;;;;;;5.78;2.08;;;;;;;;;;4998936;28;20464;-68
2021/10/12 08:22:23;;;;;;;2.90;2.20;;;11.00;99.90;;;;;;5000815;28;20033;-68
2021/10/12 08:24:49;;;;;;;3.90;2.20;;;10.60;99.90;;;;;;5001056;28;20145;-67
2021/10/12 08:27:14;;;;;;;2.65;1.63;;;10.80;99.90;;;;;;5003621;28;20037;-67
2021/10/12 08:29:40;;;;;;;3.55;2.00;;;10.70;99.90;;;;;;5001374;28;20141;-67
2021/10/12 08:32:06;;;;;;;5.35;1.70;;;;;;;;;;5001778;28;20108;-68
2021/10/12 08:37:14;;;;;;;9.32;1.77;;;;;;;;;;4718772;23;20129;-69
2021/10/12 08:39:43;;;;;;;3.22;1.73;;;11.30;99.90;;;;;;4976262;28;20038;-66
2021/10/12 08:42:08;;;;;;;17.45;8.25;;;11.30;99.90;;;;;;4986283;28;20034;-67
2021/10/12 08:44:34;;;;;;;4.30;1.60;;;11.30;99.90;;;;;;4984289;28;20032;-67
2021/10/12 08:46:59;;;;;;;3.88;2.00;;;11.60;99.90;;;;;;4988186;28;20039;-67
2021/10/12 08:49:25;;;;;;;4.18;1.02;;;11.40;99.90;;;;;;4982861;28;20034;-67
2021/10/12 08:51:50;;;;;;;2.25;1.20;;;11.50;99.90;;;;;;4985552;28;20803;-67
2021/10/12 08:54:16;;;;;;;4.57;1.08;;;11.50;99.90;;;;;;4984398;28;20057;-64
2021/10/12 08:56:41;;;;;;;2.53;1.05;;;11.50;99.90;;;;;;4978538;28;20137;-63
2021/10/12 08:59:07;;;;;;;6.38;1.08;;;11.40;99.90;;;;;;4982184;28;20038;-64
2021/10/12 09:01:34;;;;;;;3.10;1.05;;;11.40;99.90;;;;;;4983830;28;20109;-64
2021/10/12 09:04:02;;;;;;;3.05;0.73;;;11.20;99.90;;;;;;4984418;28;20022;-64
2021/10/12 09:06:31;;;;;;;4.65;0.82;;;11.30;99.90;;;;;;4982940;28;20034;-67
2021/10/12 09:08:57;;;;;;;2.40;1.83;;;;;;;;;;4973370;28;20441;-64
2021/10/12 09:11:25;;;;;;;7.53;1.40;;;11.30;99.90;;;;;;4984321;28;20105;-64
2021/10/12 09:13:50;;;;;;;2.90;1.00;;;10.80;99.90;;;;;;4984958;28;20137;-63
2021/10/12 09:16:16;;;;;;;2.25;1.00;;;10.80;99.90;;;;;;4984557;28;20026;-64
2021/10/12 09:18:42;;;;;;;3.30;0.88;;;11.00;99.90;;;;;;4981938;28;20129;-66
2021/10/12 09:21:07;;;;;;;4.43;0.90;;;10.80;99.90;;;;;;4984737;28;20458;-66
2021/10/12 09:23:34;;;;;;;3.83;0.93;;;10.80;99.90;;;;;;4985349;28;20034;-66
2021/10/12 09:26:00;;;;;;;2.72;0.95;;;10.60;99.90;;;;;;4984522;28;20038;-66
2021/10/12 09:28:25;;;;;;;5.15;0.93;;;10.40;99.90;;;;;;4984425;28;20026;-63
2021/10/12 09:30:53;;;;;;;4.40;0.98;;;10.40;99.90;;;;;;4984353;28;20091;-63
2021/10/12 09:33:18;;;;;;;3.78;1.23;;;10.40;99.90;;;;;;4985577;28;20919;-63
2021/10/12 09:35:43;;;;;;;8.90;1.13;;;10.20;99.90;;;;;;4983940;28;20042;-63
2021/10/12 09:38:09;;;;;;;7.28;1.08;;;10.40;99.90;;;;;;4997079;28;20097;-63
2021/10/12 09:40:35;;;;;;;4.03;0.90;;;10.70;99.90;;;;;;4984271;28;20033;-63
2021/10/12 09:43:00;;;;;;;2.90;1.23;;;11.20;99.90;;;;;;4972512;28;20037;-63
2021/10/12 09:45:25;;;;;;;4.90;1.23;;;11.70;99.90;;;;;;4981360;28;20041;-64
2021/10/12 09:47:51;;;;;;;7.57;1.30;;;12.60;99.90;;;;;;4981834;28;20390;-63
2021/10/12 09:50:16;;;;;;;4.38;0.73;;;12.40;99.90;;;;;;4982451;28;20105;-66
2021/10/12 09:52:46;;;;;;;5.10;0.80;;;12.70;99.90;;;;;;4981462;28;20281;-66
2021/10/12 09:55:11;;;;;;;2.63;0.73;;;12.50;99.90;;;;;;4996606;28;20031;-67
2021/10/12 09:57:40;;;;;;;5.20;1.17;;;13.00;99.90;;;;;;4980931;28;20030;-67
2021/10/12 10:00:05;;;;;;;4.57;0.95;;;13.30;99.90;;;;;;4982702;28;20148;-68
2021/10/12 10:02:38;;;;;;;3.38;0.70;;;;;;;;;;4983854;28;20030;-67
2021/10/12 10:05:03;;;;;;;8.75;1.05;;;13.10;99.90;;;;;;4982890;28;20034;-67
2021/10/12 10:07:30;;;;;;;5.97;1.80;;;13.00;99.90;;;;;;4973499;28;20093;-67
2021/10/12 10:09:55;;;;;;;5.32;0.90;;;14.00;99.90;;;;;;4998034;28;20035;-67
2021/10/12 10:12:21;;;;;;;4.82;2.35;;;13.00;99.90;;;;;;4988113;28;20394;-68
2021/10/12 10:14:46;;;;;;;1.88;0.90;;;12.90;99.90;;;;;;4981492;28;20034;-68
2021/10/12 10:17:12;;;;;;;6.00;0.93;;;12.80;99.90;;;;;;4981356;28;20088;-68
2021/10/12 10:19:37;;;;;;;5.03;1.10;;;13.00;99.90;;;;;;4980418;28;20031;-68
2021/10/12 10:22:03;;;;;;;6.13;0.90;;;13.00;99.90;;;;;;4982556;28;20041;-68
2021/10/12 10:24:29;;;;;;;4.65;0.80;;;13.00;99.90;;;;;;4981644;28;20473;-68
2021/10/12 10:26:56;;;;;;;4.22;0.80;;;13.30;99.90;;;;;;4987462;28;20041;-68
2021/10/12 10:29:25;;;;;;;2.80;0.70;;;13.50;99.90;;;;;;4985748;28;20034;-67
2021/10/12 10:31:52;;;;;;;3.20;0.80;;;13.70;99.90;;;;;;4976466;28;20054;-67
2021/10/12 10:34:17;;;;;;;6.40;0.70;;;14.30;99.90;;;;;;4974856;28;20363;-67
2021/10/12 10:36:43;;;;;;;4.30;0.90;;;;;;;;;;4998276;28;20042;-67
2021/10/12 10:39:09;;;;;;;2.65;0.80;;;14.00;99.90;;;;;;4981892;28;20041;-67
2021/10/12 10:41:34;;;;;;;3.53;0.95;;;14.30;99.90;;;;;;4981934;28;20030;-68
2021/10/12 10:44:01;;;;;;;6.30;1.00;;;14.80;99.90;;;;;;4988586;28;20507;-67
2021/10/12 10:46:26;;;;;;;3.90;0.70;;;14.50;99.90;;;;;;4980708;28;20386;-67
2021/10/12 10:48:52;;;;;;;8.13;1.02;;;13.70;99.90;;;;;;4985431;28;20103;-67
2021/10/12 10:51:18;;;;;;;4.57;0.70;;;13.30;99.90;;;;;;4988708;28;20049;-67
2021/10/12 10:53:43;;;;;;;2.80;0.70;;;12.60;99.90;;;;;;4983151;28;20058;-68
2021/10/12 10:56:08;;;;;;;2.67;0.57;;;12.30;99.90;;;;;;4981714;28;20817;-68
2021/10/12 10:58:34;;;;;;;4.78;0.65;;;12.70;99.90;;;;;;4981322;28;20113;-67
2021/10/12 11:00:59;;;;;;;2.50;0.60;;;13.10;99.90;;;;;;4970953;28;20410;-68
2021/10/12 11:03:25;;;;;;;4.15;1.63;;;13.70;99.90;;;;;;4982549;28;20872;-68
2021/10/12 11:05:51;;;;;;;2.80;0.70;;;13.50;99.90;;;;;;4981654;28;20033;-68
2021/10/12 11:08:17;;;;;;;3.40;0.93;;;13.70;99.90;;;;;;4982329;28;20030;-68
2021/10/12 11:10:43;;;;;;;4.45;0.63;;;14.20;99.90;;;;;;4981398;28;20037;-68
2021/10/12 11:13:08;;;;;;;3.20;0.80;;;14.70;99.90;;;;;;4982804;28;20124;-68
2021/10/12 11:15:34;;;;;;;3.20;0.85;;;14.80;99.90;;;;;;4982818;28;20236;-68
2021/10/12 11:17:59;;;;;;;1.58;0.60;;;14.50;99.90;;;;;;4980630;28;20038;-68
2021/10/12 11:20:25;;;;;;;3.83;0.80;;;13.10;99.90;;;;;;4972414;28;20027;-68
2021/10/12 11:22:52;;;;;;;2.60;0.40;;;13.40;99.90;;;;;;4982955;28;20034;-68
2021/10/12 11:25:17;;;;;;;4.70;0.60;;;13.70;99.90;;;;;;4983279;28;20537;-68
2021/10/12 11:27:43;;;;;;;5.07;0.60;;;;;;;;;;4972859;28;20049;-68
2021/10/12 11:30:09;;;;;;;2.88;0.70;;;14.50;99.90;;;;;;4981205;28;20026;-68
2021/10/12 11:32:34;;;;;;;5.97;1.02;;;15.00;99.90;;;;;;4981882;28;20508;-68
2021/10/12 11:35:00;;;;;;;3.60;0.70;;;15.20;99.90;;;;;;4977713;28;20054;-68
2021/10/12 11:37:25;;;;;;;2.67;0.50;;;15.40;99.90;;;;;;4980718;28;20118;-68
2021/10/12 11:39:51;;;;;;;4.30;1.02;;;15.50;99.90;;;;;;4996006;28;20133;-68
2021/10/12 11:42:16;;;;;;;1.13;0.55;;;15.40;99.90;;;;;;4980147;28;20061;-68
2021/10/12 11:44:42;;;;;;;10.05;4.88;;;15.10;99.90;;;;;;4982035;28;20494;-67
2021/10/12 11:47:08;;;;;;;5.57;0.80;;;14.30;99.90;;;;;;4981215;28;20038;-68
2021/10/12 11:49:34;;;;;;;1.38;0.60;;;13.90;99.90;;;;;;4980961;28;20697;-68
2021/10/12 11:52:00;;;;;;;6.78;0.93;;;14.00;99.90;;;;;;4981975;28;20043;-68
2021/10/12 11:54:26;;;;;;;1.70;0.70;;;14.20;99.90;;;;;;4980722;28;20026;-68
2021/10/12 11:56:51;;;;;;;2.60;0.80;;;14.30;99.90;;;;;;4979300;28;20030;-68
2021/10/12 11:59:17;;;;;;;3.92;1.23;;;14.40;99.90;;;;;;4981618;28;20030;-68
2021/10/12 12:01:44;;;;;;;3.30;0.60;;;14.80;99.90;;;;;;4980805;28;20548;-68
2021/10/12 12:04:10;;;;;;;0.68;0.40;;;;;;;;;;4982651;28;20038;-68
2021/10/12 12:06:36;;;;;;;5.68;0.68;;;15.30;99.50;;;;;;4982191;28;20442;-68
2021/10/12 12:09:01;;;;;;;3.90;0.70;;;15.30;99.00;;;;;;4980820;28;20432;-68
2021/10/12 12:11:27;;;;;;;1.05;0.38;;;15.30;99.60;;;;;;4981697;28;20375;-68
2021/10/12 12:13:53;;;;;;;2.88;0.63;;;15.30;99.90;;;;;;4987703;28;20045;-69
2021/10/12 12:16:18;;;;;;;3.10;0.60;;;15.40;99.30;;;;;;4981784;28;20046;-68
2021/10/12 12:18:44;;;;;;;2.88;0.65;;;15.40;99.00;;;;;;4980818;28;20036;-68
2021/10/12 12:21:10;;;;;;;2.88;0.45;;;15.60;99.10;;;;;;4981573;28;20035;-68
2021/10/12 12:23:35;;;;;;;4.82;0.63;;;15.60;99.10;;;;;;4997545;28;20096;-68
2021/10/12 12:26:02;;;;;;;2.85;0.70;;;15.80;98.60;;;;;;4987725;28;20034;-68
2021/10/12 12:28:27;;;;;;;2.15;0.50;;;15.80;97.10;;;;;;4978015;28;20398;-68
2021/10/12 12:30:53;;;;;;;2.13;0.50;;;15.90;96.60;;;;;;4974367;28;20041;-68
2021/10/12 12:33:18;;;;;;;2.40;0.73;;;15.50;96.90;;;;;;4979830;28;20117;-68
2021/10/12 12:35:43;;;;;;;3.60;0.50;;;15.40;97.70;;;;;;4981945;28;20541;-68
2021/10/12 12:38:09;;;;;;;1.60;0.50;;;15.30;95.70;;;;;;4980959;28;20049;-68
2021/10/12 12:40:35;;;;;;;3.72;0.70;;;15.10;96.70;;;;;;4980651;28;20049;-68
2021/10/12 12:43:00;;;;;;;2.63;0.50;;;15.00;96.40;;;;;;4981267;28;20026;-68
2021/10/12 12:45:26;;;;;;;3.60;0.60;;;14.90;97.10;;;;;;4979247;28;21009;-69
2021/10/12 12:47:51;;;;;;;3.00;0.63;;;14.90;96.90;;;;;;4980963;28;20490;-68
2021/10/12 12:50:17;;;;;;;2.13;0.40;;;14.90;96.80;;;;;;4981102;28;20125;-68
2021/10/12 12:52:42;;;;;;;5.03;0.60;;;14.90;95.70;;;;;;4982957;28;20045;-68
2021/10/12 12:55:08;;;;;;;2.03;0.40;;;14.70;96.80;;;;;;4985235;28;20053;-68
2021/10/12 12:57:33;;;;;;;1.42;0.50;;;14.60;98.40;;;;;;4983693;28;20096;-68
2021/10/12 13:00:00;;;;;;;4.55;1.08;;;14.80;98.70;;;;;;4988922;28;20026;-68
2021/10/12 13:02:26;;;;;;;2.92;1.27;;;14.40;97.40;;;;;;4984618;28;20030;-68
2021/10/12 13:04:51;;;;;;;6.15;1.52;;;14.40;97.30;;;;;;4984030;28;20698;-68
2021/10/12 13:07:17;;;;;;;7.75;4.00;;;13.60;97.30;;;;;;4984163;28;20049;-68
2021/10/12 13:09:42;;;;;;;40.22;13.63;;;13.60;97.80;;;;;;4983635;28;20034;-68
2021/10/12 13:12:10;;;;;;;153.15;48.17;;;13.70;97.00;;;;;;4984852;28;20062;-68
2021/10/12 13:14:35;;;;;;;39.58;14.65;;;13.70;97.00;;;;;;4984460;28;20046;-68